DEGFA EDDG-EDDG
Flight info
| Callsign | DEGFA |
|---|---|
| Flight time | 0h 5m |
| Altitude | |
| Route | |
| Aircraft | C172 |
Departure
| Time | 2026-04-09 22:04 |
|---|---|
| Airport | Münster Osnabrück Airport (EDDG) |
Arrival
| Time | 2026-04-09 22:09 |
|---|---|
| Airport | Münster Osnabrück Airport (EDDG) |
| Time | Latitude | Longitude | Altitude | Speed | Heading |
|---|---|---|---|---|---|
| 2026-04-09 22:02 | 52.13265 | 7.68313 | 161 ft | 12 kts | 340° |
| 2026-04-09 22:02 | 52.13315 | 7.68288 | 162 ft | 0 kts | 342° |
| 2026-04-09 22:02 | 52.13318 | 7.68286 | 162 ft | 5 kts | 341° |
| 2026-04-09 22:02 | 52.13382 | 7.68100 | 161 ft | 38 kts | 250° |
| 2026-04-09 22:03 | 52.13245 | 7.67447 | 161 ft | 82 kts | 250° |
| 2026-04-09 22:03 | 52.13055 | 7.66529 | 327 ft | 89 kts | 251° |
| 2026-04-09 22:03 | 52.12824 | 7.65595 | 518 ft | 91 kts | 246° |
| 2026-04-09 22:03 | 52.12503 | 7.64697 | 724 ft | 91 kts | 229° |
| 2026-04-09 22:04 | 52.11917 | 7.64347 | 821 ft | 100 kts | 181° |
| 2026-04-09 22:04 | 52.11203 | 7.64454 | 930 ft | 106 kts | 167° |
| 2026-04-09 22:04 | 52.10503 | 7.64640 | 1109 ft | 102 kts | 158° |
| 2026-04-09 22:04 | 52.10011 | 7.65549 | 1062 ft | 126 kts | 108° |
| 2026-04-09 22:05 | 52.10116 | 7.66857 | 1292 ft | 114 kts | 58° |
| 2026-04-09 22:05 | 52.11048 | 7.69227 | 1281 ft | 133 kts | 56° |
| 2026-04-09 22:05 | 52.11561 | 7.70462 | 1363 ft | 130 kts | 56° |
| 2026-04-09 22:06 | 52.12020 | 7.71684 | 1576 ft | 118 kts | 58° |
| 2026-04-09 22:06 | 52.12454 | 7.72802 | 1738 ft | 116 kts | 55° |
| 2026-04-09 22:06 | 52.12957 | 7.73955 | 1677 ft | 131 kts | 52° |
| 2026-04-09 22:06 | 52.13550 | 7.75034 | 1758 ft | 127 kts | 22° |
| 2026-04-09 22:07 | 52.14384 | 7.74776 | 1773 ft | 127 kts | 327° |
| 2026-04-09 22:07 | 52.14651 | 7.73660 | 1647 ft | 105 kts | 255° |
| 2026-04-09 22:07 | 52.14363 | 7.72446 | 795 ft | 149 kts | 246° |
| 2026-04-09 22:07 | 52.13951 | 7.70805 | 379 ft | 153 kts | 250° |
| 2026-04-09 22:08 | 52.13609 | 7.69206 | 181 ft | 144 kts | 251° |
| 2026-04-09 22:08 | 52.13289 | 7.67736 | 308 ft | 118 kts | 235° |
| 2026-04-09 22:08 | 52.12976 | 7.66564 | 474 ft | 112 kts | 263° |
| 2026-04-09 22:08 | 52.13292 | 7.65440 | 565 ft | 117 kts | 321° |
| 2026-04-09 22:09 | 52.13931 | 7.64702 | 818 ft | 107 kts | 324° |
| 2026-04-09 22:09 | 52.14333 | 7.64193 | 1440 ft | 14 kts | 169° |
| 2026-04-09 22:09 | 52.14171 | 7.64898 | 636 ft | 113 kts | 90° |
| 2026-04-09 22:09 | 52.14486 | 7.65887 | 767 ft | 96 kts | 52° |
| 2026-04-09 22:10 | 52.14763 | 7.66396 | 1256 ft | 24 kts | 354° |
| 2026-04-09 22:10 | 52.14879 | 7.67259 | 706 ft | 52 kts | 89° |
| 2026-04-09 22:10 | 52.14740 | 7.67635 | 590 ft | 119 kts | 110° |
| 2026-04-09 22:10 | 52.14907 | 7.68834 | 548 ft | 114 kts | 51° |
| 2026-04-09 22:11 | 52.15543 | 7.69492 | 493 ft | 94 kts | 12° |
| 2026-04-09 22:11 | 52.15883 | 7.70328 | 533 ft | 103 kts | 91° |
| 2026-04-09 22:11 | 52.15773 | 7.71534 | 506 ft | 111 kts | 97° |
| 2026-04-09 22:11 | 52.15552 | 7.72680 | 647 ft | 109 kts | 133° |
| 2026-04-09 22:12 | 52.14831 | 7.73183 | 636 ft | 117 kts | 163° |
| 2026-04-09 22:12 | 52.14245 | 7.72653 | 732 ft | 109 kts | 253° |
| 2026-04-09 22:12 | 52.14053 | 7.71514 | 540 ft | 102 kts | 256° |
| 2026-04-09 22:12 | 52.13868 | 7.70462 | 309 ft | 94 kts | 252° |
| 2026-04-09 22:13 | 52.13695 | 7.69572 | 177 ft | 69 kts | 252° |
| 2026-04-09 22:13 | 52.13574 | 7.68977 | 161 ft | 44 kts | 250° |
| 2026-04-09 22:13 | 52.13500 | 7.68670 | 160 ft | 9 kts | 253° |
| 2026-04-09 22:13 | 52.13497 | 7.68652 | 160 ft | 9 kts | 253° |
| 2026-04-09 22:14 | 52.13448 | 7.68387 | 162 ft | 30 kts | 259° |
| 2026-04-09 22:14 | 52.13316 | 7.68287 | 162 ft | 26 kts | 161° |
| 2026-04-09 22:14 | 52.13163 | 7.68285 | 159 ft | 16 kts | 236° |
| 2026-04-09 22:14 | 52.13159 | 7.68258 | 159 ft | 0 kts | 275° |